sensor_id;sensor_type;location;lat;lon;timestamp;temperature;humidity
52725;DHT22;38621;52.830;6.914;2024-02-14T00:01:55;6.90;99.90
52725;DHT22;38621;52.830;6.914;2024-02-14T00:04:21;7.00;99.90
52725;DHT22;38621;52.830;6.914;2024-02-14T00:06:47;6.90;99.90
52725;DHT22;38621;52.830;6.914;2024-02-14T00:09:12;6.90;99.90
52725;DHT22;38621;52.830;6.914;2024-02-14T00:11:38;6.90;99.90
52725;DHT22;38621;52.830;6.914;2024-02-14T00:14:04;6.90;99.90
52725;DHT22;38621;52.830;6.914;2024-02-14T00:16:30;6.80;99.90
52725;DHT22;38621;52.830;6.914;2024-02-14T00:18:56;6.80;99.90
52725;DHT22;38621;52.830;6.914;2024-02-14T00:21:23;6.80;99.90
52725;DHT22;38621;52.830;6.914;2024-02-14T00:23:49;6.80;99.90
52725;DHT22;38621;52.830;6.914;2024-02-14T00:26:15;6.80;99.90
52725;DHT22;38621;52.830;6.914;2024-02-14T00:28:41;6.80;99.90
52725;DHT22;38621;52.830;6.914;2024-02-14T00:31:07;6.80;99.90
52725;DHT22;38621;52.830;6.914;2024-02-14T00:33:32;6.70;99.90
52725;DHT22;38621;52.830;6.914;2024-02-14T00:35:58;6.70;99.90
52725;DHT22;38621;52.830;6.914;2024-02-14T00:38:24;6.80;99.90
52725;DHT22;38621;52.830;6.914;2024-02-14T00:40:49;6.70;99.90
52725;DHT22;38621;52.830;6.914;2024-02-14T00:43:15;6.70;99.90
52725;DHT22;38621;52.830;6.914;2024-02-14T00:45:41;6.70;99.90
52725;DHT22;38621;52.830;6.914;2024-02-14T00:48:07;6.70;99.90
52725;DHT22;38621;52.830;6.914;2024-02-14T00:50:32;6.80;99.90
52725;DHT22;38621;52.830;6.914;2024-02-14T00:52:59;6.90;99.90
52725;DHT22;38621;52.830;6.914;2024-02-14T00:55:25;6.90;99.90
52725;DHT22;38621;52.830;6.914;2024-02-14T00:57:51;6.80;99.90
52725;DHT22;38621;52.830;6.914;2024-02-14T01:00:17;6.90;99.90
52725;DHT22;38621;52.830;6.914;2024-02-14T01:02:44;6.90;99.90
52725;DHT22;38621;52.830;6.914;2024-02-14T01:05:10;6.90;99.90
52725;DHT22;38621;52.830;6.914;2024-02-14T01:07:36;6.90;99.90
52725;DHT22;38621;52.830;6.914;2024-02-14T01:10:02;7.00;99.90
52725;DHT22;38621;52.830;6.914;2024-02-14T01:12:28;7.00;99.90
52725;DHT22;38621;52.830;6.914;2024-02-14T01:14:57;7.00;99.90
52725;DHT22;38621;52.830;6.914;2024-02-14T01:17:23;7.00;99.90
52725;DHT22;38621;52.830;6.914;2024-02-14T01:19:49;7.00;99.90
52725;DHT22;38621;52.830;6.914;2024-02-14T01:22:15;7.10;99.90
52725;DHT22;38621;52.830;6.914;2024-02-14T01:24:43;7.10;99.90
52725;DHT22;38621;52.830;6.914;2024-02-14T01:27:10;7.10;99.90
52725;DHT22;38621;52.830;6.914;2024-02-14T01:29:35;7.10;99.90
52725;DHT22;38621;52.830;6.914;2024-02-14T01:32:01;7.10;99.90
52725;DHT22;38621;52.830;6.914;2024-02-14T01:34:27;7.10;99.90
52725;DHT22;38621;52.830;6.914;2024-02-14T01:36:53;7.20;99.90
52725;DHT22;38621;52.830;6.914;2024-02-14T01:39:20;7.40;99.90
52725;DHT22;38621;52.830;6.914;2024-02-14T01:41:48;7.20;99.90
52725;DHT22;38621;52.830;6.914;2024-02-14T01:44:14;7.20;99.90
52725;DHT22;38621;52.830;6.914;2024-02-14T01:46:44;7.20;99.90
52725;DHT22;38621;52.830;6.914;2024-02-14T01:49:11;7.20;99.90
52725;DHT22;38621;52.830;6.914;2024-02-14T01:51:42;7.50;99.90
52725;DHT22;38621;52.830;6.914;2024-02-14T01:54:12;7.30;99.90
52725;DHT22;38621;52.830;6.914;2024-02-14T01:56:39;7.40;99.90
52725;DHT22;38621;52.830;6.914;2024-02-14T01:59:05;7.40;99.90
52725;DHT22;38621;52.830;6.914;2024-02-14T02:01:32;7.30;99.90
52725;DHT22;38621;52.830;6.914;2024-02-14T02:03:58;7.30;99.90
52725;DHT22;38621;52.830;6.914;2024-02-14T02:06:24;7.30;99.90
52725;DHT22;38621;52.830;6.914;2024-02-14T02:08:52;7.40;99.90
52725;DHT22;38621;52.830;6.914;2024-02-14T02:11:18;7.40;99.90
52725;DHT22;38621;52.830;6.914;2024-02-14T02:13:44;7.40;99.90
52725;DHT22;38621;52.830;6.914;2024-02-14T02:16:10;7.40;99.90
52725;DHT22;38621;52.830;6.914;2024-02-14T02:18:35;7.40;99.90
52725;DHT22;38621;52.830;6.914;2024-02-14T02:21:02;7.50;99.90
52725;DHT22;38621;52.830;6.914;2024-02-14T02:23:35;7.50;99.90
52725;DHT22;38621;52.830;6.914;2024-02-14T02:26:01;7.50;99.90
52725;DHT22;38621;52.830;6.914;2024-02-14T02:28:27;7.50;99.90
52725;DHT22;38621;52.830;6.914;2024-02-14T02:30:53;7.60;99.90
52725;DHT22;38621;52.830;6.914;2024-02-14T02:33:21;7.60;99.90
52725;DHT22;38621;52.830;6.914;2024-02-14T02:35:48;7.60;99.90
52725;DHT22;38621;52.830;6.914;2024-02-14T02:38:16;7.60;99.90
52725;DHT22;38621;52.830;6.914;2024-02-14T02:40:43;7.60;99.90
52725;DHT22;38621;52.830;6.914;2024-02-14T02:43:08;7.60;99.90
52725;DHT22;38621;52.830;6.914;2024-02-14T02:45:36;7.70;99.90
52725;DHT22;38621;52.830;6.914;2024-02-14T02:48:01;7.60;99.90
52725;DHT22;38621;52.830;6.914;2024-02-14T02:50:27;7.70;99.90
52725;DHT22;38621;52.830;6.914;2024-02-14T02:52:54;7.70;99.90
52725;DHT22;38621;52.830;6.914;2024-02-14T02:55:20;7.70;99.90
52725;DHT22;38621;52.830;6.914;2024-02-14T02:57:46;7.70;99.90
52725;DHT22;38621;52.830;6.914;2024-02-14T03:00:12;7.80;99.90
52725;DHT22;38621;52.830;6.914;2024-02-14T03:02:39;7.70;99.90
52725;DHT22;38621;52.830;6.914;2024-02-14T03:05:10;7.70;99.90
52725;DHT22;38621;52.830;6.914;2024-02-14T03:07:38;7.70;99.90
52725;DHT22;38621;52.830;6.914;2024-02-14T03:10:05;7.80;99.90
52725;DHT22;38621;52.830;6.914;2024-02-14T03:12:30;7.80;99.90
52725;DHT22;38621;52.830;6.914;2024-02-14T03:14:58;7.80;99.90
52725;DHT22;38621;52.830;6.914;2024-02-14T03:17:23;7.80;99.90
52725;DHT22;38621;52.830;6.914;2024-02-14T03:19:49;7.80;99.90
52725;DHT22;38621;52.830;6.914;2024-02-14T03:22:17;7.90;99.90
52725;DHT22;38621;52.830;6.914;2024-02-14T03:24:44;7.90;99.90
52725;DHT22;38621;52.830;6.914;2024-02-14T03:27:12;7.90;99.90
52725;DHT22;38621;52.830;6.914;2024-02-14T03:29:38;7.90;99.90
52725;DHT22;38621;52.830;6.914;2024-02-14T03:32:05;7.90;99.90
52725;DHT22;38621;52.830;6.914;2024-02-14T03:34:32;7.90;99.90
52725;DHT22;38621;52.830;6.914;2024-02-14T03:37:01;8.00;99.90
52725;DHT22;38621;52.830;6.914;2024-02-14T03:39:32;8.00;99.90
52725;DHT22;38621;52.830;6.914;2024-02-14T03:41:58;8.00;99.90
52725;DHT22;38621;52.830;6.914;2024-02-14T03:44:26;8.10;99.90
52725;DHT22;38621;52.830;6.914;2024-02-14T03:46:52;8.10;99.90
52725;DHT22;38621;52.830;6.914;2024-02-14T03:49:18;8.10;99.90
52725;DHT22;38621;52.830;6.914;2024-02-14T03:51:45;8.20;99.90
52725;DHT22;38621;52.830;6.914;2024-02-14T03:54:11;8.10;99.90
52725;DHT22;38621;52.830;6.914;2024-02-14T03:56:37;8.10;99.90
52725;DHT22;38621;52.830;6.914;2024-02-14T03:59:03;8.10;99.90
52725;DHT22;38621;52.830;6.914;2024-02-14T04:01:33;8.20;99.90
52725;DHT22;38621;52.830;6.914;2024-02-14T04:03:59;8.20;99.90
52725;DHT22;38621;52.830;6.914;2024-02-14T04:06:25;8.20;99.90
52725;DHT22;38621;52.830;6.914;2024-02-14T04:08:52;8.20;99.90
52725;DHT22;38621;52.830;6.914;2024-02-14T04:11:17;8.20;99.90
52725;DHT22;38621;52.830;6.914;2024-02-14T04:13:43;8.30;99.90
52725;DHT22;38621;52.830;6.914;2024-02-14T04:16:09;8.30;99.90
52725;DHT22;38621;52.830;6.914;2024-02-14T04:18:34;8.30;99.90
52725;DHT22;38621;52.830;6.914;2024-02-14T04:21:00;8.30;99.90
52725;DHT22;38621;52.830;6.914;2024-02-14T04:23:26;8.40;99.90
52725;DHT22;38621;52.830;6.914;2024-02-14T04:25:51;8.50;99.90
52725;DHT22;38621;52.830;6.914;2024-02-14T04:28:17;8.40;99.90
52725;DHT22;38621;52.830;6.914;2024-02-14T04:30:43;8.40;99.90
52725;DHT22;38621;52.830;6.914;2024-02-14T04:33:08;8.50;99.90
52725;DHT22;38621;52.830;6.914;2024-02-14T04:35:34;8.40;99.90
52725;DHT22;38621;52.830;6.914;2024-02-14T04:38:00;8.50;99.90
52725;DHT22;38621;52.830;6.914;2024-02-14T04:40:26;8.50;99.90
52725;DHT22;38621;52.830;6.914;2024-02-14T04:42:52;8.50;99.90
52725;DHT22;38621;52.830;6.914;2024-02-14T04:45:18;8.60;99.90
52725;DHT22;38621;52.830;6.914;2024-02-14T04:47:44;8.50;99.90
52725;DHT22;38621;52.830;6.914;2024-02-14T04:50:10;8.60;99.90
52725;DHT22;38621;52.830;6.914;2024-02-14T04:52:35;8.60;99.90
52725;DHT22;38621;52.830;6.914;2024-02-14T04:55:01;8.60;99.90
52725;DHT22;38621;52.830;6.914;2024-02-14T04:57:27;8.60;99.90
52725;DHT22;38621;52.830;6.914;2024-02-14T04:59:52;8.60;99.90
52725;DHT22;38621;52.830;6.914;2024-02-14T05:02:18;8.60;99.90
52725;DHT22;38621;52.830;6.914;2024-02-14T05:04:44;8.70;99.90
52725;DHT22;38621;52.830;6.914;2024-02-14T05:07:09;8.70;99.90
52725;DHT22;38621;52.830;6.914;2024-02-14T05:09:35;8.80;99.90
52725;DHT22;38621;52.830;6.914;2024-02-14T05:12:01;8.70;99.90
52725;DHT22;38621;52.830;6.914;2024-02-14T05:14:27;8.80;99.90
52725;DHT22;38621;52.830;6.914;2024-02-14T05:16:56;8.70;99.90
52725;DHT22;38621;52.830;6.914;2024-02-14T05:19:22;8.80;99.90
52725;DHT22;38621;52.830;6.914;2024-02-14T05:21:49;8.80;99.90
52725;DHT22;38621;52.830;6.914;2024-02-14T05:24:15;8.80;99.90
52725;DHT22;38621;52.830;6.914;2024-02-14T05:26:41;8.90;99.90
52725;DHT22;38621;52.830;6.914;2024-02-14T05:29:07;8.80;99.90
52725;DHT22;38621;52.830;6.914;2024-02-14T05:31:46;8.80;99.90
52725;DHT22;38621;52.830;6.914;2024-02-14T05:34:12;8.80;99.90
52725;DHT22;38621;52.830;6.914;2024-02-14T05:36:38;8.80;99.90
52725;DHT22;38621;52.830;6.914;2024-02-14T05:39:04;8.80;99.90
52725;DHT22;38621;52.830;6.914;2024-02-14T05:41:31;8.90;99.90
52725;DHT22;38621;52.830;6.914;2024-02-14T05:43:58;8.90;99.90
52725;DHT22;38621;52.830;6.914;2024-02-14T05:46:24;8.90;99.90
52725;DHT22;38621;52.830;6.914;2024-02-14T05:48:50;9.00;99.90
52725;DHT22;38621;52.830;6.914;2024-02-14T05:51:18;8.90;99.90
52725;DHT22;38621;52.830;6.914;2024-02-14T05:53:43;8.90;99.90
52725;DHT22;38621;52.830;6.914;2024-02-14T05:56:09;8.90;99.90
52725;DHT22;38621;52.830;6.914;2024-02-14T05:58:35;8.90;99.90
52725;DHT22;38621;52.830;6.914;2024-02-14T06:01:01;9.00;99.90
52725;DHT22;38621;52.830;6.914;2024-02-14T06:03:27;9.00;99.90
52725;DHT22;38621;52.830;6.914;2024-02-14T06:05:53;9.00;99.90
52725;DHT22;38621;52.830;6.914;2024-02-14T06:08:18;9.00;99.90
52725;DHT22;38621;52.830;6.914;2024-02-14T06:10:44;9.00;99.90
52725;DHT22;38621;52.830;6.914;2024-02-14T06:13:10;9.00;99.90
52725;DHT22;38621;52.830;6.914;2024-02-14T06:15:36;9.10;99.90
52725;DHT22;38621;52.830;6.914;2024-02-14T06:18:02;9.10;99.90
52725;DHT22;38621;52.830;6.914;2024-02-14T06:20:27;9.10;99.90
52725;DHT22;38621;52.830;6.914;2024-02-14T06:22:53;9.20;99.90
52725;DHT22;38621;52.830;6.914;2024-02-14T06:25:20;9.10;99.90
52725;DHT22;38621;52.830;6.914;2024-02-14T06:27:46;9.20;99.90
52725;DHT22;38621;52.830;6.914;2024-02-14T06:30:12;9.20;99.90
52725;DHT22;38621;52.830;6.914;2024-02-14T06:32:38;9.20;99.90
52725;DHT22;38621;52.830;6.914;2024-02-14T06:35:04;9.20;99.90
52725;DHT22;38621;52.830;6.914;2024-02-14T06:37:29;9.20;99.90
52725;DHT22;38621;52.830;6.914;2024-02-14T06:39:55;9.30;99.90
52725;DHT22;38621;52.830;6.914;2024-02-14T06:42:21;9.30;99.90
52725;DHT22;38621;52.830;6.914;2024-02-14T06:44:46;9.30;99.90
52725;DHT22;38621;52.830;6.914;2024-02-14T06:47:13;9.30;99.90
52725;DHT22;38621;52.830;6.914;2024-02-14T06:49:38;9.30;99.90
52725;DHT22;38621;52.830;6.914;2024-02-14T06:52:04;9.40;99.90
52725;DHT22;38621;52.830;6.914;2024-02-14T06:54:30;9.40;99.90
52725;DHT22;38621;52.830;6.914;2024-02-14T06:56:56;9.50;99.90
52725;DHT22;38621;52.830;6.914;2024-02-14T06:59:21;9.50;99.90
52725;DHT22;38621;52.830;6.914;2024-02-14T07:01:48;9.50;99.90
52725;DHT22;38621;52.830;6.914;2024-02-14T07:04:14;9.60;99.90
52725;DHT22;38621;52.830;6.914;2024-02-14T07:06:39;9.50;99.90
52725;DHT22;38621;52.830;6.914;2024-02-14T07:09:05;9.50;99.90
52725;DHT22;38621;52.830;6.914;2024-02-14T07:11:31;9.60;99.90
52725;DHT22;38621;52.830;6.914;2024-02-14T07:13:57;9.60;99.90
52725;DHT22;38621;52.830;6.914;2024-02-14T07:16:23;9.60;99.90
52725;DHT22;38621;52.830;6.914;2024-02-14T07:18:49;9.60;99.90
52725;DHT22;38621;52.830;6.914;2024-02-14T07:21:15;9.60;99.90
52725;DHT22;38621;52.830;6.914;2024-02-14T07:23:42;9.60;99.90
52725;DHT22;38621;52.830;6.914;2024-02-14T07:26:08;9.60;99.90
52725;DHT22;38621;52.830;6.914;2024-02-14T07:28:33;9.60;99.90
52725;DHT22;38621;52.830;6.914;2024-02-14T07:30:59;9.70;99.90
52725;DHT22;38621;52.830;6.914;2024-02-14T07:33:25;9.60;99.90
52725;DHT22;38621;52.830;6.914;2024-02-14T07:35:50;9.70;99.90
52725;DHT22;38621;52.830;6.914;2024-02-14T07:38:16;9.70;99.90
52725;DHT22;38621;52.830;6.914;2024-02-14T07:40:43;9.80;99.90
52725;DHT22;38621;52.830;6.914;2024-02-14T07:43:08;9.80;99.90
52725;DHT22;38621;52.830;6.914;2024-02-14T07:45:34;9.80;99.90
52725;DHT22;38621;52.830;6.914;2024-02-14T07:48:00;9.80;99.90
52725;DHT22;38621;52.830;6.914;2024-02-14T07:50:25;9.80;99.90
52725;DHT22;38621;52.830;6.914;2024-02-14T07:52:53;9.80;99.90
52725;DHT22;38621;52.830;6.914;2024-02-14T07:55:19;9.80;99.90
52725;DHT22;38621;52.830;6.914;2024-02-14T07:57:44;9.90;99.90
52725;DHT22;38621;52.830;6.914;2024-02-14T08:00:10;9.90;99.90
52725;DHT22;38621;52.830;6.914;2024-02-14T08:02:37;9.80;99.90
52725;DHT22;38621;52.830;6.914;2024-02-14T08:05:03;9.80;99.90
52725;DHT22;38621;52.830;6.914;2024-02-14T08:07:34;9.80;99.90
52725;DHT22;38621;52.830;6.914;2024-02-14T08:09:59;9.90;99.90
52725;DHT22;38621;52.830;6.914;2024-02-14T08:12:25;9.90;99.90
52725;DHT22;38621;52.830;6.914;2024-02-14T08:14:52;9.80;99.90
52725;DHT22;38621;52.830;6.914;2024-02-14T08:17:17;9.90;99.90
52725;DHT22;38621;52.830;6.914;2024-02-14T08:19:43;9.80;99.90
52725;DHT22;38621;52.830;6.914;2024-02-14T08:22:09;9.80;99.90
52725;DHT22;38621;52.830;6.914;2024-02-14T08:24:34;9.90;99.90
52725;DHT22;38621;52.830;6.914;2024-02-14T08:27:00;9.90;99.90
52725;DHT22;38621;52.830;6.914;2024-02-14T08:29:26;9.90;99.90
52725;DHT22;38621;52.830;6.914;2024-02-14T08:31:51;9.90;99.90
52725;DHT22;38621;52.830;6.914;2024-02-14T08:34:18;9.90;99.90
52725;DHT22;38621;52.830;6.914;2024-02-14T08:36:44;9.90;99.90
52725;DHT22;38621;52.830;6.914;2024-02-14T08:39:10;10.00;99.90
52725;DHT22;38621;52.830;6.914;2024-02-14T08:41:37;9.90;99.90
52725;DHT22;38621;52.830;6.914;2024-02-14T08:44:03;9.90;99.90
52725;DHT22;38621;52.830;6.914;2024-02-14T08:46:30;10.00;99.90
52725;DHT22;38621;52.830;6.914;2024-02-14T08:48:56;10.00;99.90
52725;DHT22;38621;52.830;6.914;2024-02-14T08:51:22;10.00;99.90
52725;DHT22;38621;52.830;6.914;2024-02-14T08:53:49;10.00;99.90
52725;DHT22;38621;52.830;6.914;2024-02-14T08:56:20;10.00;99.90
52725;DHT22;38621;52.830;6.914;2024-02-14T08:58:46;10.00;99.90
52725;DHT22;38621;52.830;6.914;2024-02-14T09:01:12;10.10;99.90
52725;DHT22;38621;52.830;6.914;2024-02-14T09:03:38;10.10;99.90
52725;DHT22;38621;52.830;6.914;2024-02-14T09:06:04;10.10;99.90
52725;DHT22;38621;52.830;6.914;2024-02-14T09:08:30;10.10;99.90
52725;DHT22;38621;52.830;6.914;2024-02-14T09:10:57;10.10;99.90
52725;DHT22;38621;52.830;6.914;2024-02-14T09:13:24;10.10;99.90
52725;DHT22;38621;52.830;6.914;2024-02-14T09:15:50;10.10;99.90
52725;DHT22;38621;52.830;6.914;2024-02-14T09:18:18;10.10;99.90
52725;DHT22;38621;52.830;6.914;2024-02-14T09:20:44;10.10;99.90
52725;DHT22;38621;52.830;6.914;2024-02-14T09:23:12;10.10;99.90
52725;DHT22;38621;52.830;6.914;2024-02-14T09:25:39;10.10;99.90
52725;DHT22;38621;52.830;6.914;2024-02-14T09:28:05;10.20;99.90
52725;DHT22;38621;52.830;6.914;2024-02-14T09:30:32;10.10;99.90
52725;DHT22;38621;52.830;6.914;2024-02-14T09:32:58;10.10;99.90
52725;DHT22;38621;52.830;6.914;2024-02-14T09:35:24;10.10;99.90
52725;DHT22;38621;52.830;6.914;2024-02-14T09:37:51;10.10;99.90
52725;DHT22;38621;52.830;6.914;2024-02-14T09:40:17;10.10;99.90
52725;DHT22;38621;52.830;6.914;2024-02-14T09:42:53;10.10;99.90
52725;DHT22;38621;52.830;6.914;2024-02-14T09:45:19;10.10;99.90
52725;DHT22;38621;52.830;6.914;2024-02-14T09:47:45;10.10;99.90
52725;DHT22;38621;52.830;6.914;2024-02-14T09:50:12;10.10;99.90
52725;DHT22;38621;52.830;6.914;2024-02-14T09:52:38;10.10;99.90
52725;DHT22;38621;52.830;6.914;2024-02-14T09:55:05;10.10;99.90
52725;DHT22;38621;52.830;6.914;2024-02-14T09:57:32;10.10;99.90
52725;DHT22;38621;52.830;6.914;2024-02-14T10:00:00;10.20;99.90
52725;DHT22;38621;52.830;6.914;2024-02-14T10:02:31;10.10;99.90
52725;DHT22;38621;52.830;6.914;2024-02-14T10:04:56;10.20;99.90
52725;DHT22;38621;52.830;6.914;2024-02-14T10:07:22;10.20;99.90
52725;DHT22;38621;52.830;6.914;2024-02-14T10:09:48;10.20;99.90
52725;DHT22;38621;52.830;6.914;2024-02-14T10:12:14;10.30;99.90
52725;DHT22;38621;52.830;6.914;2024-02-14T10:14:40;10.30;99.90
52725;DHT22;38621;52.830;6.914;2024-02-14T10:17:06;10.30;99.90
52725;DHT22;38621;52.830;6.914;2024-02-14T10:19:33;10.30;99.90
52725;DHT22;38621;52.830;6.914;2024-02-14T10:22:00;10.40;99.90
52725;DHT22;38621;52.830;6.914;2024-02-14T10:24:28;10.30;99.90
52725;DHT22;38621;52.830;6.914;2024-02-14T10:26:54;10.30;99.90
52725;DHT22;38621;52.830;6.914;2024-02-14T10:29:23;10.30;99.90
52725;DHT22;38621;52.830;6.914;2024-02-14T10:31:49;10.50;99.90
52725;DHT22;38621;52.830;6.914;2024-02-14T10:34:16;10.30;99.90
52725;DHT22;38621;52.830;6.914;2024-02-14T10:36:43;10.30;99.90
52725;DHT22;38621;52.830;6.914;2024-02-14T10:39:11;10.30;99.90
52725;DHT22;38621;52.830;6.914;2024-02-14T10:41:37;10.40;99.90
52725;DHT22;38621;52.830;6.914;2024-02-14T10:44:05;10.40;99.90
52725;DHT22;38621;52.830;6.914;2024-02-14T10:46:37;10.40;99.90
52725;DHT22;38621;52.830;6.914;2024-02-14T10:49:06;10.40;99.90
52725;DHT22;38621;52.830;6.914;2024-02-14T10:51:34;10.40;99.90
52725;DHT22;38621;52.830;6.914;2024-02-14T10:54:04;10.40;99.90
52725;DHT22;38621;52.830;6.914;2024-02-14T10:56:32;10.50;99.90
52725;DHT22;38621;52.830;6.914;2024-02-14T10:58:58;10.50;99.90
52725;DHT22;38621;52.830;6.914;2024-02-14T11:01:27;10.40;99.90
52725;DHT22;38621;52.830;6.914;2024-02-14T11:04:00;10.50;99.90
52725;DHT22;38621;52.830;6.914;2024-02-14T11:06:26;10.40;99.90
52725;DHT22;38621;52.830;6.914;2024-02-14T11:09:04;10.50;99.90
52725;DHT22;38621;52.830;6.914;2024-02-14T11:11:33;10.50;99.90
52725;DHT22;38621;52.830;6.914;2024-02-14T11:13:59;10.50;99.90
52725;DHT22;38621;52.830;6.914;2024-02-14T11:16:25;10.60;99.90
52725;DHT22;38621;52.830;6.914;2024-02-14T11:19:15;10.60;99.90
52725;DHT22;38621;52.830;6.914;2024-02-14T11:21:42;10.60;99.90
52725;DHT22;38621;52.830;6.914;2024-02-14T11:24:12;10.60;99.90
52725;DHT22;38621;52.830;6.914;2024-02-14T11:26:47;10.60;99.90
52725;DHT22;38621;52.830;6.914;2024-02-14T11:29:16;10.60;99.90
52725;DHT22;38621;52.830;6.914;2024-02-14T11:31:42;10.70;99.90
52725;DHT22;38621;52.830;6.914;2024-02-14T11:34:10;10.70;99.90
52725;DHT22;38621;52.830;6.914;2024-02-14T11:36:36;10.80;99.90
52725;DHT22;38621;52.830;6.914;2024-02-14T11:39:03;10.80;99.90
52725;DHT22;38621;52.830;6.914;2024-02-14T11:41:32;10.80;99.90
52725;DHT22;38621;52.830;6.914;2024-02-14T11:44:06;10.80;99.90
52725;DHT22;38621;52.830;6.914;2024-02-14T11:46:36;10.80;99.90
52725;DHT22;38621;52.830;6.914;2024-02-14T11:49:03;10.80;99.90
52725;DHT22;38621;52.830;6.914;2024-02-14T11:51:31;10.90;99.90
52725;DHT22;38621;52.830;6.914;2024-02-14T11:54:00;10.80;99.90
52725;DHT22;38621;52.830;6.914;2024-02-14T11:56:31;10.80;99.90
52725;DHT22;38621;52.830;6.914;2024-02-14T11:59:00;10.90;99.90
52725;DHT22;38621;52.830;6.914;2024-02-14T12:01:31;10.90;99.90
52725;DHT22;38621;52.830;6.914;2024-02-14T12:03:59;10.90;99.90
52725;DHT22;38621;52.830;6.914;2024-02-14T12:06:27;10.90;99.90
52725;DHT22;38621;52.830;6.914;2024-02-14T12:08:54;10.90;99.90
52725;DHT22;38621;52.830;6.914;2024-02-14T12:11:20;10.90;99.90
52725;DHT22;38621;52.830;6.914;2024-02-14T12:13:49;11.00;99.90
52725;DHT22;38621;52.830;6.914;2024-02-14T12:16:15;11.00;99.90
52725;DHT22;38621;52.830;6.914;2024-02-14T12:18:41;11.00;99.90
52725;DHT22;38621;52.830;6.914;2024-02-14T12:21:07;11.00;99.90
52725;DHT22;38621;52.830;6.914;2024-02-14T12:23:33;11.10;99.90
52725;DHT22;38621;52.830;6.914;2024-02-14T12:26:03;11.10;99.90
52725;DHT22;38621;52.830;6.914;2024-02-14T12:28:29;11.20;99.90
52725;DHT22;38621;52.830;6.914;2024-02-14T12:30:57;11.20;99.90
52725;DHT22;38621;52.830;6.914;2024-02-14T12:33:27;11.20;99.90
52725;DHT22;38621;52.830;6.914;2024-02-14T12:35:56;11.20;99.90
52725;DHT22;38621;52.830;6.914;2024-02-14T12:38:24;11.20;99.90
52725;DHT22;38621;52.830;6.914;2024-02-14T12:40:50;11.20;99.90
52725;DHT22;38621;52.830;6.914;2024-02-14T12:43:19;11.20;99.90
52725;DHT22;38621;52.830;6.914;2024-02-14T12:45:45;11.10;99.90
52725;DHT22;38621;52.830;6.914;2024-02-14T12:48:12;11.10;99.90
52725;DHT22;38621;52.830;6.914;2024-02-14T12:50:39;11.10;99.90
52725;DHT22;38621;52.830;6.914;2024-02-14T12:53:06;11.10;99.90
52725;DHT22;38621;52.830;6.914;2024-02-14T12:55:32;11.10;99.90
52725;DHT22;38621;52.830;6.914;2024-02-14T12:57:58;11.10;99.90
52725;DHT22;38621;52.830;6.914;2024-02-14T13:00:24;11.10;99.90
52725;DHT22;38621;52.830;6.914;2024-02-14T13:02:50;11.10;99.90
52725;DHT22;38621;52.830;6.914;2024-02-14T13:05:16;11.10;99.90
52725;DHT22;38621;52.830;6.914;2024-02-14T13:07:43;11.10;99.90
52725;DHT22;38621;52.830;6.914;2024-02-14T13:10:09;11.10;99.90
52725;DHT22;38621;52.830;6.914;2024-02-14T13:12:37;11.20;99.90
52725;DHT22;38621;52.830;6.914;2024-02-14T13:15:03;11.20;99.90
52725;DHT22;38621;52.830;6.914;2024-02-14T13:17:29;11.10;99.90
52725;DHT22;38621;52.830;6.914;2024-02-14T13:19:55;11.10;99.90
52725;DHT22;38621;52.830;6.914;2024-02-14T13:22:21;11.10;99.90
52725;DHT22;38621;52.830;6.914;2024-02-14T13:24:47;11.10;99.90
52725;DHT22;38621;52.830;6.914;2024-02-14T13:27:12;11.10;99.90
52725;DHT22;38621;52.830;6.914;2024-02-14T13:29:39;11.10;99.90
52725;DHT22;38621;52.830;6.914;2024-02-14T13:32:05;11.10;99.90
52725;DHT22;38621;52.830;6.914;2024-02-14T13:34:33;11.10;99.90
52725;DHT22;38621;52.830;6.914;2024-02-14T13:36:59;11.10;99.90
52725;DHT22;38621;52.830;6.914;2024-02-14T13:39:25;11.10;99.90
52725;DHT22;38621;52.830;6.914;2024-02-14T13:41:51;11.10;99.90
52725;DHT22;38621;52.830;6.914;2024-02-14T13:44:17;11.00;99.90
52725;DHT22;38621;52.830;6.914;2024-02-14T13:46:45;11.10;99.90
52725;DHT22;38621;52.830;6.914;2024-02-14T13:49:16;11.00;99.90
52725;DHT22;38621;52.830;6.914;2024-02-14T13:51:47;11.00;99.90
52725;DHT22;38621;52.830;6.914;2024-02-14T13:54:13;11.10;99.90
52725;DHT22;38621;52.830;6.914;2024-02-14T13:56:40;11.00;99.90
52725;DHT22;38621;52.830;6.914;2024-02-14T13:59:06;11.10;99.90
52725;DHT22;38621;52.830;6.914;2024-02-14T14:01:32;11.10;99.90
52725;DHT22;38621;52.830;6.914;2024-02-14T14:03:57;11.20;99.90
52725;DHT22;38621;52.830;6.914;2024-02-14T14:06:24;11.20;99.90
52725;DHT22;38621;52.830;6.914;2024-02-14T14:08:50;11.20;99.90
52725;DHT22;38621;52.830;6.914;2024-02-14T14:11:17;11.20;99.90
52725;DHT22;38621;52.830;6.914;2024-02-14T14:13:42;11.20;99.90
52725;DHT22;38621;52.830;6.914;2024-02-14T14:16:08;11.20;99.90
52725;DHT22;38621;52.830;6.914;2024-02-14T14:18:35;11.20;99.90
52725;DHT22;38621;52.830;6.914;2024-02-14T14:21:01;11.20;99.90
52725;DHT22;38621;52.830;6.914;2024-02-14T14:23:26;11.20;99.90
52725;DHT22;38621;52.830;6.914;2024-02-14T14:25:52;11.20;99.90
52725;DHT22;38621;52.830;6.914;2024-02-14T14:28:18;11.20;99.90
52725;DHT22;38621;52.830;6.914;2024-02-14T14:30:53;11.20;99.90
52725;DHT22;38621;52.830;6.914;2024-02-14T14:33:21;11.20;99.90
52725;DHT22;38621;52.830;6.914;2024-02-14T14:35:48;11.20;99.90
52725;DHT22;38621;52.830;6.914;2024-02-14T14:38:16;11.20;99.90
52725;DHT22;38621;52.830;6.914;2024-02-14T14:40:42;11.20;99.90
52725;DHT22;38621;52.830;6.914;2024-02-14T14:43:08;11.10;99.90
52725;DHT22;38621;52.830;6.914;2024-02-14T14:45:33;11.20;99.90
52725;DHT22;38621;52.830;6.914;2024-02-14T14:47:59;11.20;99.90
52725;DHT22;38621;52.830;6.914;2024-02-14T14:50:25;11.20;99.90
52725;DHT22;38621;52.830;6.914;2024-02-14T14:52:51;11.20;99.90
52725;DHT22;38621;52.830;6.914;2024-02-14T14:55:18;11.10;99.90
52725;DHT22;38621;52.830;6.914;2024-02-14T14:57:44;11.20;99.90
52725;DHT22;38621;52.830;6.914;2024-02-14T15:00:10;11.10;99.90
52725;DHT22;38621;52.830;6.914;2024-02-14T15:02:40;11.10;99.90
52725;DHT22;38621;52.830;6.914;2024-02-14T15:05:11;11.10;99.90
52725;DHT22;38621;52.830;6.914;2024-02-14T15:07:41;11.10;99.90
52725;DHT22;38621;52.830;6.914;2024-02-14T15:10:07;11.10;99.90
52725;DHT22;38621;52.830;6.914;2024-02-14T15:12:36;11.20;99.90
52725;DHT22;38621;52.830;6.914;2024-02-14T15:15:03;11.20;99.90
52725;DHT22;38621;52.830;6.914;2024-02-14T15:17:29;11.10;99.90
52725;DHT22;38621;52.830;6.914;2024-02-14T15:19:55;11.20;99.90
52725;DHT22;38621;52.830;6.914;2024-02-14T15:22:21;11.20;99.90
52725;DHT22;38621;52.830;6.914;2024-02-14T15:24:47;11.20;99.90
52725;DHT22;38621;52.830;6.914;2024-02-14T15:27:12;11.20;99.90
52725;DHT22;38621;52.830;6.914;2024-02-14T15:29:49;11.20;99.90
52725;DHT22;38621;52.830;6.914;2024-02-14T15:32:33;11.20;99.90
52725;DHT22;38621;52.830;6.914;2024-02-14T15:35:18;11.20;99.90
52725;DHT22;38621;52.830;6.914;2024-02-14T15:37:44;11.20;99.90